createdAt,value
2022-11-17T00:03:53.491Z,9.40
2022-11-17T00:08:57.160Z,11.00
2022-11-17T00:14:19.836Z,11.43
2022-11-17T00:19:44.839Z,7.97
2022-11-17T00:24:51.742Z,8.00
2022-11-17T00:29:53.478Z,6.63
2022-11-17T00:34:57.826Z,6.80
2022-11-17T00:40:01.101Z,5.30
2022-11-17T00:45:08.722Z,7.43
2022-11-17T00:50:10.411Z,6.87
2022-11-17T00:55:17.046Z,4.63
2022-11-17T01:00:21.293Z,5.23
2022-11-17T01:05:22.993Z,3.73
2022-11-17T01:10:25.581Z,3.50
2022-11-17T01:15:31.116Z,4.00
2022-11-17T01:20:36.358Z,4.10
2022-11-17T01:25:40.987Z,5.83
2022-11-17T01:30:44.780Z,4.37
2022-11-17T01:35:48.458Z,4.80
2022-11-17T01:40:50.599Z,6.67
2022-11-17T01:45:52.305Z,8.27
2022-11-17T01:50:54.237Z,8.00
2022-11-17T01:55:58.788Z,5.50
2022-11-17T02:01:05.703Z,6.63
2022-11-17T02:06:38.137Z,8.40
2022-11-17T02:11:41.952Z,7.70
2022-11-17T02:16:45.676Z,9.70
2022-11-17T02:22:02.647Z,10.67
2022-11-17T02:27:32.423Z,8.67
2022-11-17T02:33:03.517Z,12.03
2022-11-17T02:38:09.318Z,9.10
2022-11-17T02:43:32.942Z,10.83
2022-11-17T02:48:41.700Z,15.33
2022-11-17T02:53:49.615Z,10.50
2022-11-17T02:58:55.997Z,18.13
2022-11-17T03:04:15.933Z,16.80
2022-11-17T03:09:46.080Z,11.87
2022-11-17T03:15:12.769Z,11.57
2022-11-17T03:20:18.537Z,15.93
2022-11-17T03:25:24.262Z,15.57
2022-11-17T03:30:29.947Z,12.70
2022-11-17T03:35:37.123Z,15.93
2022-11-17T03:40:47.684Z,16.33
2022-11-17T03:45:54.056Z,18.43
2022-11-17T03:50:59.210Z,18.17
2022-11-17T03:56:09.364Z,17.23
2022-11-17T04:01:11.261Z,18.13
2022-11-17T04:06:15.288Z,24.07
2022-11-17T04:11:37.411Z,17.80
2022-11-17T04:16:42.331Z,17.70
2022-11-17T04:21:46.103Z,30.93
2022-11-17T04:27:11.993Z,22.47
2022-11-17T04:32:14.122Z,19.23
2022-11-17T04:37:20.721Z,18.73
2022-11-17T04:42:22.492Z,17.67
2022-11-17T04:47:26.718Z,17.30
2022-11-17T04:52:33.836Z,17.90
2022-11-17T04:57:35.484Z,17.10
2022-11-17T05:02:37.269Z,19.57
2022-11-17T05:07:39.029Z,16.70
2022-11-17T05:12:59.137Z,19.53
2022-11-17T05:18:00.866Z,17.27
2022-11-17T05:23:21.971Z,21.00
2022-11-17T05:28:23.713Z,17.90
2022-11-17T05:33:34.915Z,18.10
2022-11-17T05:38:39.336Z,19.57
2022-11-17T05:43:41.145Z,19.50
2022-11-17T05:48:42.860Z,16.10
2022-11-17T05:53:44.564Z,17.33
2022-11-17T05:58:51.250Z,22.60
2022-11-17T06:03:56.293Z,17.83
2022-11-17T06:08:59.280Z,20.13
2022-11-17T06:14:00.985Z,22.53
2022-11-17T06:19:08.076Z,24.03
2022-11-17T06:24:14.089Z,23.20
2022-11-17T06:29:21.124Z,25.20
2022-11-17T06:34:22.919Z,23.43
2022-11-17T06:39:29.066Z,23.87
2022-11-17T06:44:37.581Z,25.77
2022-11-17T06:49:39.917Z,24.93
2022-11-17T06:54:41.630Z,26.10
2022-11-17T06:59:52.457Z,26.70
2022-11-17T07:05:01.379Z,28.13
2022-11-17T07:10:08.441Z,24.20
2022-11-17T07:15:10.454Z,25.23
2022-11-17T07:20:12.859Z,24.03
2022-11-17T07:25:22.298Z,25.60
2022-11-17T07:30:29.047Z,27.67
2022-11-17T07:35:35.237Z,27.30
2022-11-17T07:40:40.277Z,27.23
2022-11-17T07:45:41.923Z,26.10
2022-11-17T07:50:47.001Z,29.80
2022-11-17T07:55:50.922Z,25.53
2022-11-17T08:00:53.784Z,30.47
2022-11-17T08:05:55.541Z,26.83
2022-11-17T08:10:57.531Z,30.10
2022-11-17T08:16:02.833Z,29.67
2022-11-17T08:21:06.952Z,29.00
2022-11-17T08:26:11.901Z,30.43
2022-11-17T08:31:16.117Z,28.67
2022-11-17T08:36:17.887Z,29.73
2022-11-17T08:41:22.073Z,24.57
2022-11-17T08:46:26.684Z,31.73
2022-11-17T08:51:30.962Z,25.73
2022-11-17T08:56:35.060Z,30.73
2022-11-17T09:01:40.310Z,27.97
2022-11-17T09:06:42.042Z,27.77
2022-11-17T09:11:46.736Z,25.43
2022-11-17T09:16:48.434Z,27.23
2022-11-17T09:21:50.326Z,25.90
2022-11-17T09:26:57.896Z,21.97
2022-11-17T09:31:59.671Z,21.33
2022-11-17T09:37:04.125Z,20.47
2022-11-17T09:42:06.064Z,24.93
2022-11-17T09:47:41.526Z,25.97
2022-11-17T09:52:59.389Z,20.30
2022-11-17T09:58:48.191Z,20.77
2022-11-17T10:03:53.620Z,19.17
2022-11-17T10:09:25.618Z,18.67
2022-11-17T10:14:28.177Z,18.73
2022-11-17T10:19:34.581Z,22.60
2022-11-17T10:24:39.324Z,17.33
2022-11-17T10:30:18.808Z,18.63
2022-11-17T10:35:30.648Z,19.40
2022-11-17T10:40:40.429Z,20.60
2022-11-17T10:46:01.186Z,19.80
2022-11-17T10:51:19.322Z,17.47
2022-11-17T10:56:24.937Z,17.33
2022-11-17T11:01:36.196Z,17.93
2022-11-17T11:06:38.928Z,18.83
2022-11-17T11:11:54.326Z,18.00
2022-11-17T11:16:56.222Z,17.23
2022-11-17T11:22:20.988Z,16.90
2022-11-17T11:27:38.639Z,15.07
2022-11-17T11:32:52.154Z,16.20
2022-11-17T11:38:00.004Z,15.07
2022-11-17T11:43:33.318Z,14.60
2022-11-17T11:48:40.765Z,14.37
2022-11-17T11:54:12.024Z,17.30
2022-11-17T11:59:30.018Z,15.63
2022-11-17T12:04:47.837Z,16.20
2022-11-17T12:10:10.005Z,18.20
2022-11-17T12:15:18.100Z,18.33
2022-11-17T12:20:38.377Z,17.37
2022-11-17T12:25:50.642Z,15.30
2022-11-17T12:31:10.117Z,14.73
2022-11-17T12:36:36.908Z,16.77
2022-11-17T12:41:47.535Z,18.60
2022-11-17T12:46:50.518Z,16.67
2022-11-17T12:52:00.893Z,13.27
2022-11-17T12:57:17.402Z,12.27
2022-11-17T13:02:31.182Z,14.60
2022-11-17T13:07:35.380Z,15.70
2022-11-17T13:12:37.384Z,12.57
2022-11-17T13:17:45.344Z,13.03
2022-11-17T13:23:20.768Z,11.17
2022-11-17T13:28:30.516Z,13.00
2022-11-17T13:33:39.980Z,9.80
2022-11-17T13:38:52.554Z,8.97
2022-11-17T13:43:55.087Z,11.10
2022-11-17T13:48:59.003Z,9.03
2022-11-17T13:54:28.472Z,8.07
2022-11-17T13:59:36.602Z,8.27
2022-11-17T14:05:18.400Z,12.33
2022-11-17T14:10:22.896Z,13.40
2022-11-17T14:15:29.323Z,7.97
2022-11-17T14:20:38.233Z,11.47
2022-11-17T14:25:46.244Z,8.33
2022-11-17T14:30:54.297Z,10.73
2022-11-17T14:35:58.676Z,9.03
2022-11-17T14:41:00.408Z,8.57
2022-11-17T14:46:05.412Z,7.50
2022-11-17T14:51:08.502Z,9.43
2022-11-17T14:56:10.946Z,6.70
2022-11-17T15:01:18.745Z,8.47
2022-11-17T15:06:21.085Z,7.10
2022-11-17T15:11:26.364Z,9.13
2022-11-17T15:16:30.289Z,7.53
2022-11-17T15:21:32.017Z,9.47
2022-11-17T15:26:39.604Z,9.50
2022-11-17T15:31:41.846Z,8.60
2022-11-17T15:36:48.554Z,9.47
2022-11-17T15:41:50.815Z,7.53
2022-11-17T15:46:52.863Z,11.73
2022-11-17T15:51:54.720Z,13.17
2022-11-17T15:57:01.448Z,9.53
2022-11-17T16:02:09.082Z,8.33
2022-11-17T16:07:11.917Z,12.40
2022-11-17T16:12:13.797Z,10.13
2022-11-17T16:17:18.341Z,8.50
2022-11-17T16:22:20.116Z,8.87
2022-11-17T16:27:24.438Z,9.00
2022-11-17T16:32:30.743Z,10.30
2022-11-17T16:37:32.812Z,9.43
2022-11-17T16:42:35.697Z,11.27
2022-11-17T16:47:39.940Z,8.40
2022-11-17T16:52:46.754Z,8.63
2022-11-17T16:57:51.760Z,8.90
2022-11-17T17:02:58.437Z,9.33
2022-11-17T17:08:02.584Z,10.93
2022-11-17T17:13:07.356Z,11.23
2022-11-17T17:18:12.341Z,9.27
2022-11-17T17:23:16.933Z,11.70
2022-11-17T17:28:22.461Z,11.67
2022-11-17T17:33:27.056Z,9.83
2022-11-17T17:38:31.604Z,10.53
2022-11-17T17:43:36.950Z,10.43
2022-11-17T17:48:39.835Z,10.30
2022-11-17T17:53:45.171Z,10.43
2022-11-17T17:58:51.616Z,10.80
2022-11-17T18:03:59.286Z,12.13
2022-11-17T18:09:01.254Z,11.80
2022-11-17T18:14:04.330Z,12.40
2022-11-17T18:19:14.490Z,12.53
2022-11-17T18:24:19.871Z,13.43
2022-11-17T18:29:21.829Z,11.67
2022-11-17T18:34:25.508Z,11.87
2022-11-17T18:39:35.234Z,12.50
2022-11-17T18:44:37.024Z,13.00
2022-11-17T18:49:43.601Z,14.50
2022-11-17T18:54:45.266Z,17.93
2022-11-17T18:59:49.370Z,15.70
2022-11-17T19:04:53.664Z,14.87
2022-11-17T19:09:55.830Z,14.90
2022-11-17T19:15:00.208Z,13.30
2022-11-17T19:20:04.332Z,15.27
2022-11-17T19:25:08.749Z,16.07
2022-11-17T19:30:13.603Z,15.77
2022-11-17T19:35:21.299Z,14.53
2022-11-17T19:40:25.303Z,16.57
2022-11-17T19:45:27.586Z,17.83
2022-11-17T19:50:31.761Z,15.47
2022-11-17T19:55:39.232Z,14.33
2022-11-17T20:00:45.283Z,15.60
2022-11-17T20:05:49.295Z,14.57
2022-11-17T20:11:04.444Z,14.50
2022-11-17T20:16:12.023Z,14.47
2022-11-17T20:21:17.987Z,13.77
2022-11-17T20:26:22.057Z,14.53
2022-11-17T20:31:31.376Z,17.67
2022-11-17T20:36:34.435Z,16.43
2022-11-17T20:41:36.091Z,16.53
2022-11-17T20:46:37.787Z,14.87
2022-11-17T20:51:42.979Z,19.50
2022-11-17T20:56:47.472Z,15.63
2022-11-17T21:01:50.529Z,14.70
2022-11-17T21:06:55.594Z,18.07
2022-11-17T21:12:00.512Z,18.27
2022-11-17T21:17:24.897Z,16.57
2022-11-17T21:22:26.600Z,20.07
2022-11-17T21:27:32.722Z,16.63
2022-11-17T21:32:34.478Z,14.03
2022-11-17T21:37:38.325Z,14.53
2022-11-17T21:42:44.612Z,12.97
2022-11-17T21:47:56.520Z,15.87
2022-11-17T21:53:05.347Z,14.93
2022-11-17T21:58:12.491Z,19.63
2022-11-17T22:03:17.169Z,16.97
2022-11-17T22:08:23.221Z,15.33
2022-11-17T22:13:29.408Z,16.93
2022-11-17T22:18:34.882Z,19.70
2022-11-17T22:23:39.389Z,17.83
2022-11-17T22:28:43.453Z,18.53
2022-11-17T22:33:50.855Z,17.40
2022-11-17T22:38:53.655Z,15.13
2022-11-17T22:43:56.439Z,16.33
2022-11-17T22:48:59.006Z,15.80
2022-11-17T22:54:03.303Z,17.10
2022-11-17T22:59:05.807Z,16.80
2022-11-17T23:04:07.488Z,15.97
2022-11-17T23:09:12.906Z,16.50
2022-11-17T23:14:14.859Z,20.97
2022-11-17T23:19:18.974Z,18.70
2022-11-17T23:24:25.439Z,15.97
2022-11-17T23:29:30.719Z,17.13
2022-11-17T23:34:38.250Z,16.17
2022-11-17T23:39:45.280Z,18.57
2022-11-17T23:44:52.944Z,16.47
2022-11-17T23:49:56.864Z,18.33
2022-11-17T23:55:00.951Z,19.37
